sensor_id;sensor_type;location;lat;lon;timestamp;P1;durP1;ratioP1;P2;durP2;ratioP2
2480;SDS011;57396;48.742;9.128;2023-07-30T00:01:47;3.70;;;2.00;;
2480;SDS011;57396;48.742;9.128;2023-07-30T00:04:13;2.80;;;1.60;;
2480;SDS011;57396;48.742;9.128;2023-07-30T00:06:38;2.43;;;1.57;;
2480;SDS011;57396;48.742;9.128;2023-07-30T00:09:04;1.50;;;1.33;;
2480;SDS011;57396;48.742;9.128;2023-07-30T00:11:30;1.87;;;0.93;;
2480;SDS011;57396;48.742;9.128;2023-07-30T00:13:55;1.73;;;1.40;;
2480;SDS011;57396;48.742;9.128;2023-07-30T00:16:21;1.80;;;1.47;;
2480;SDS011;57396;48.742;9.128;2023-07-30T00:18:46;3.07;;;1.70;;
2480;SDS011;57396;48.742;9.128;2023-07-30T00:21:12;2.10;;;1.80;;
2480;SDS011;57396;48.742;9.128;2023-07-30T00:23:38;1.60;;;1.50;;
2480;SDS011;57396;48.742;9.128;2023-07-30T00:26:03;1.67;;;1.57;;
2480;SDS011;57396;48.742;9.128;2023-07-30T00:28:28;2.20;;;2.03;;
2480;SDS011;57396;48.742;9.128;2023-07-30T00:30:54;1.60;;;1.50;;
2480;SDS011;57396;48.742;9.128;2023-07-30T00:33:19;1.60;;;1.50;;
2480;SDS011;57396;48.742;9.128;2023-07-30T00:35:45;4.17;;;1.70;;
2480;SDS011;57396;48.742;9.128;2023-07-30T00:38:10;15.73;;;2.20;;
2480;SDS011;57396;48.742;9.128;2023-07-30T00:40:39;2.03;;;1.80;;
2480;SDS011;57396;48.742;9.128;2023-07-30T00:43:05;1.80;;;1.70;;
2480;SDS011;57396;48.742;9.128;2023-07-30T00:45:31;2.83;;;1.90;;
2480;SDS011;57396;48.742;9.128;2023-07-30T00:47:56;1.67;;;1.57;;
2480;SDS011;57396;48.742;9.128;2023-07-30T00:50:22;2.03;;;1.70;;
2480;SDS011;57396;48.742;9.128;2023-07-30T00:52:48;2.80;;;2.10;;
2480;SDS011;57396;48.742;9.128;2023-07-30T00:55:13;2.73;;;2.43;;
2480;SDS011;57396;48.742;9.128;2023-07-30T00:57:40;2.60;;;2.30;;
2480;SDS011;57396;48.742;9.128;2023-07-30T01:00:06;2.70;;;2.50;;
2480;SDS011;57396;48.742;9.128;2023-07-30T01:02:34;4.00;;;2.70;;
2480;SDS011;57396;48.742;9.128;2023-07-30T01:05:00;6.43;;;2.40;;
2480;SDS011;57396;48.742;9.128;2023-07-30T01:07:26;3.20;;;2.47;;
2480;SDS011;57396;48.742;9.128;2023-07-30T01:09:52;3.00;;;2.30;;
2480;SDS011;57396;48.742;9.128;2023-07-30T01:12:17;2.77;;;2.30;;
2480;SDS011;57396;48.742;9.128;2023-07-30T01:14:44;2.50;;;2.30;;
2480;SDS011;57396;48.742;9.128;2023-07-30T01:17:10;3.23;;;2.17;;
2480;SDS011;57396;48.742;9.128;2023-07-30T01:19:36;5.70;;;2.53;;
2480;SDS011;57396;48.742;9.128;2023-07-30T01:22:02;2.50;;;2.00;;
2480;SDS011;57396;48.742;9.128;2023-07-30T01:24:27;3.40;;;2.10;;
2480;SDS011;57396;48.742;9.128;2023-07-30T01:27:01;5.13;;;2.60;;
2480;SDS011;57396;48.742;9.128;2023-07-30T01:29:28;3.20;;;2.80;;
2480;SDS011;57396;48.742;9.128;2023-07-30T01:32:08;3.30;;;3.00;;
2480;SDS011;57396;48.742;9.128;2023-07-30T01:34:36;2.90;;;2.70;;
2480;SDS011;57396;48.742;9.128;2023-07-30T01:37:03;2.73;;;2.53;;
2480;SDS011;57396;48.742;9.128;2023-07-30T01:39:30;6.33;;;2.50;;
2480;SDS011;57396;48.742;9.128;2023-07-30T01:41:56;6.07;;;2.53;;
2480;SDS011;57396;48.742;9.128;2023-07-30T01:44:21;2.50;;;2.30;;
2480;SDS011;57396;48.742;9.128;2023-07-30T01:46:47;4.27;;;3.10;;
2480;SDS011;57396;48.742;9.128;2023-07-30T01:49:12;3.93;;;2.93;;
2480;SDS011;57396;48.742;9.128;2023-07-30T01:51:37;6.63;;;3.00;;
2480;SDS011;57396;48.742;9.128;2023-07-30T01:54:03;2.60;;;2.40;;
2480;SDS011;57396;48.742;9.128;2023-07-30T01:56:28;2.77;;;2.57;;
2480;SDS011;57396;48.742;9.128;2023-07-30T01:58:54;2.67;;;2.47;;
2480;SDS011;57396;48.742;9.128;2023-07-30T02:01:19;2.70;;;2.50;;
2480;SDS011;57396;48.742;9.128;2023-07-30T02:03:45;2.87;;;2.67;;
2480;SDS011;57396;48.742;9.128;2023-07-30T02:06:10;3.73;;;3.17;;
2480;SDS011;57396;48.742;9.128;2023-07-30T02:08:36;6.13;;;2.70;;
2480;SDS011;57396;48.742;9.128;2023-07-30T02:11:02;6.03;;;2.93;;
2480;SDS011;57396;48.742;9.128;2023-07-30T02:13:27;8.50;;;3.00;;
2480;SDS011;57396;48.742;9.128;2023-07-30T02:15:53;3.10;;;2.90;;
2480;SDS011;57396;48.742;9.128;2023-07-30T02:18:18;3.20;;;2.53;;
2480;SDS011;57396;48.742;9.128;2023-07-30T02:20:44;2.93;;;2.73;;
2480;SDS011;57396;48.742;9.128;2023-07-30T02:23:10;4.50;;;3.10;;
2480;SDS011;57396;48.742;9.128;2023-07-30T02:25:35;2.80;;;2.60;;
2480;SDS011;57396;48.742;9.128;2023-07-30T02:28:01;3.00;;;2.70;;
2480;SDS011;57396;48.742;9.128;2023-07-30T02:30:27;3.30;;;2.90;;
2480;SDS011;57396;48.742;9.128;2023-07-30T02:32:52;4.17;;;3.13;;
2480;SDS011;57396;48.742;9.128;2023-07-30T02:35:18;5.57;;;3.57;;
2480;SDS011;57396;48.742;9.128;2023-07-30T02:37:43;3.33;;;3.03;;
2480;SDS011;57396;48.742;9.128;2023-07-30T02:40:09;4.20;;;2.57;;
2480;SDS011;57396;48.742;9.128;2023-07-30T02:42:35;3.27;;;2.60;;
2480;SDS011;57396;48.742;9.128;2023-07-30T02:45:00;8.27;;;3.03;;
2480;SDS011;57396;48.742;9.128;2023-07-30T02:47:26;4.10;;;2.73;;
2480;SDS011;57396;48.742;9.128;2023-07-30T02:49:51;3.17;;;2.80;;
2480;SDS011;57396;48.742;9.128;2023-07-30T02:52:17;2.83;;;2.63;;
2480;SDS011;57396;48.742;9.128;2023-07-30T02:54:42;2.80;;;2.60;;
2480;SDS011;57396;48.742;9.128;2023-07-30T02:57:07;3.70;;;2.80;;
2480;SDS011;57396;48.742;9.128;2023-07-30T02:59:33;4.17;;;2.90;;
2480;SDS011;57396;48.742;9.128;2023-07-30T03:02:02;2.87;;;2.67;;
2480;SDS011;57396;48.742;9.128;2023-07-30T03:04:30;3.60;;;3.00;;
2480;SDS011;57396;48.742;9.128;2023-07-30T03:06:55;4.13;;;3.77;;
2480;SDS011;57396;48.742;9.128;2023-07-30T03:09:21;5.30;;;3.77;;
2480;SDS011;57396;48.742;9.128;2023-07-30T03:11:46;6.53;;;3.10;;
2480;SDS011;57396;48.742;9.128;2023-07-30T03:14:12;3.23;;;2.83;;
2480;SDS011;57396;48.742;9.128;2023-07-30T03:16:37;5.83;;;2.90;;
2480;SDS011;57396;48.742;9.128;2023-07-30T03:19:03;6.30;;;2.90;;
2480;SDS011;57396;48.742;9.128;2023-07-30T03:21:28;20.33;;;3.50;;
2480;SDS011;57396;48.742;9.128;2023-07-30T03:23:53;7.17;;;2.57;;
2480;SDS011;57396;48.742;9.128;2023-07-30T03:26:19;7.00;;;2.80;;
2480;SDS011;57396;48.742;9.128;2023-07-30T03:28:44;3.10;;;2.80;;
2480;SDS011;57396;48.742;9.128;2023-07-30T03:31:10;8.50;;;2.90;;
2480;SDS011;57396;48.742;9.128;2023-07-30T03:33:36;3.03;;;2.60;;
2480;SDS011;57396;48.742;9.128;2023-07-30T03:36:01;7.43;;;3.17;;
2480;SDS011;57396;48.742;9.128;2023-07-30T03:38:27;6.03;;;2.60;;
2480;SDS011;57396;48.742;9.128;2023-07-30T03:40:53;3.73;;;3.30;;
2480;SDS011;57396;48.742;9.128;2023-07-30T03:43:18;3.00;;;2.60;;
2480;SDS011;57396;48.742;9.128;2023-07-30T03:45:44;5.40;;;3.60;;
2480;SDS011;57396;48.742;9.128;2023-07-30T03:48:09;5.23;;;2.83;;
2480;SDS011;57396;48.742;9.128;2023-07-30T03:50:35;5.13;;;3.00;;
2480;SDS011;57396;48.742;9.128;2023-07-30T03:53:00;6.30;;;3.20;;
2480;SDS011;57396;48.742;9.128;2023-07-30T03:55:26;4.67;;;3.10;;
2480;SDS011;57396;48.742;9.128;2023-07-30T03:57:51;4.43;;;2.50;;
2480;SDS011;57396;48.742;9.128;2023-07-30T04:00:16;5.40;;;2.50;;
2480;SDS011;57396;48.742;9.128;2023-07-30T04:02:42;3.07;;;2.77;;
2480;SDS011;57396;48.742;9.128;2023-07-30T04:05:07;5.27;;;2.70;;
2480;SDS011;57396;48.742;9.128;2023-07-30T04:07:33;4.57;;;3.07;;
2480;SDS011;57396;48.742;9.128;2023-07-30T04:09:58;2.80;;;2.60;;
2480;SDS011;57396;48.742;9.128;2023-07-30T04:12:24;4.00;;;2.30;;
2480;SDS011;57396;48.742;9.128;2023-07-30T04:14:49;5.93;;;2.67;;
2480;SDS011;57396;48.742;9.128;2023-07-30T04:17:15;4.80;;;2.80;;
2480;SDS011;57396;48.742;9.128;2023-07-30T04:19:40;7.40;;;2.70;;
2480;SDS011;57396;48.742;9.128;2023-07-30T04:22:05;2.80;;;2.60;;
2480;SDS011;57396;48.742;9.128;2023-07-30T04:24:31;3.93;;;2.43;;
2480;SDS011;57396;48.742;9.128;2023-07-30T04:26:56;7.27;;;3.23;;
2480;SDS011;57396;48.742;9.128;2023-07-30T04:29:22;4.30;;;2.43;;
2480;SDS011;57396;48.742;9.128;2023-07-30T04:31:47;5.77;;;2.33;;
2480;SDS011;57396;48.742;9.128;2023-07-30T04:34:13;2.80;;;2.50;;
2480;SDS011;57396;48.742;9.128;2023-07-30T04:36:38;2.43;;;2.23;;
2480;SDS011;57396;48.742;9.128;2023-07-30T04:39:04;3.67;;;2.13;;
2480;SDS011;57396;48.742;9.128;2023-07-30T04:41:29;4.27;;;2.13;;
2480;SDS011;57396;48.742;9.128;2023-07-30T04:43:55;3.40;;;2.20;;
2480;SDS011;57396;48.742;9.128;2023-07-30T04:46:21;3.43;;;2.57;;
2480;SDS011;57396;48.742;9.128;2023-07-30T04:48:46;5.97;;;2.67;;
2480;SDS011;57396;48.742;9.128;2023-07-30T04:51:11;13.50;;;2.50;;
2480;SDS011;57396;48.742;9.128;2023-07-30T04:53:37;3.50;;;2.90;;
2480;SDS011;57396;48.742;9.128;2023-07-30T04:56:02;3.10;;;2.53;;
2480;SDS011;57396;48.742;9.128;2023-07-30T04:58:28;5.97;;;2.63;;
2480;SDS011;57396;48.742;9.128;2023-07-30T05:00:53;4.70;;;2.30;;
2480;SDS011;57396;48.742;9.128;2023-07-30T05:03:19;3.23;;;2.60;;
2480;SDS011;57396;48.742;9.128;2023-07-30T05:05:44;6.80;;;2.83;;
2480;SDS011;57396;48.742;9.128;2023-07-30T05:08:09;5.93;;;2.63;;
2480;SDS011;57396;48.742;9.128;2023-07-30T05:10:35;4.20;;;2.63;;
2480;SDS011;57396;48.742;9.128;2023-07-30T05:13:01;2.50;;;2.30;;
2480;SDS011;57396;48.742;9.128;2023-07-30T05:15:26;4.17;;;2.30;;
2480;SDS011;57396;48.742;9.128;2023-07-30T05:17:52;2.63;;;2.43;;
2480;SDS011;57396;48.742;9.128;2023-07-30T05:20:17;3.80;;;2.53;;
2480;SDS011;57396;48.742;9.128;2023-07-30T05:22:43;3.23;;;2.43;;
2480;SDS011;57396;48.742;9.128;2023-07-30T05:25:08;3.77;;;2.40;;
2480;SDS011;57396;48.742;9.128;2023-07-30T05:27:35;4.93;;;3.07;;
2480;SDS011;57396;48.742;9.128;2023-07-30T05:30:00;4.77;;;2.60;;
2480;SDS011;57396;48.742;9.128;2023-07-30T05:32:26;4.53;;;2.30;;
2480;SDS011;57396;48.742;9.128;2023-07-30T05:34:51;6.17;;;2.80;;
2480;SDS011;57396;48.742;9.128;2023-07-30T05:37:17;3.10;;;2.90;;
2480;SDS011;57396;48.742;9.128;2023-07-30T05:39:42;7.30;;;3.10;;
2480;SDS011;57396;48.742;9.128;2023-07-30T05:42:08;2.70;;;2.50;;
2480;SDS011;57396;48.742;9.128;2023-07-30T05:44:33;6.13;;;2.80;;
2480;SDS011;57396;48.742;9.128;2023-07-30T05:46:58;2.93;;;2.73;;
2480;SDS011;57396;48.742;9.128;2023-07-30T05:49:24;2.90;;;2.63;;
2480;SDS011;57396;48.742;9.128;2023-07-30T05:51:50;7.30;;;3.00;;
2480;SDS011;57396;48.742;9.128;2023-07-30T05:54:16;2.40;;;2.20;;
2480;SDS011;57396;48.742;9.128;2023-07-30T05:56:41;2.70;;;2.50;;
2480;SDS011;57396;48.742;9.128;2023-07-30T05:59:07;3.03;;;2.40;;
2480;SDS011;57396;48.742;9.128;2023-07-30T06:01:32;2.40;;;2.20;;
2480;SDS011;57396;48.742;9.128;2023-07-30T06:03:58;3.70;;;2.30;;
2480;SDS011;57396;48.742;9.128;2023-07-30T06:06:23;6.13;;;2.63;;
2480;SDS011;57396;48.742;9.128;2023-07-30T06:08:55;4.17;;;2.50;;
2480;SDS011;57396;48.742;9.128;2023-07-30T06:11:21;3.70;;;2.40;;
2480;SDS011;57396;48.742;9.128;2023-07-30T06:13:46;3.67;;;2.43;;
2480;SDS011;57396;48.742;9.128;2023-07-30T06:16:12;3.90;;;2.20;;
2480;SDS011;57396;48.742;9.128;2023-07-30T06:18:38;3.10;;;2.23;;
2480;SDS011;57396;48.742;9.128;2023-07-30T06:21:03;3.23;;;2.60;;
2480;SDS011;57396;48.742;9.128;2023-07-30T06:23:28;4.80;;;2.27;;
2480;SDS011;57396;48.742;9.128;2023-07-30T06:25:54;2.93;;;1.97;;
2480;SDS011;57396;48.742;9.128;2023-07-30T06:28:19;2.20;;;2.00;;
2480;SDS011;57396;48.742;9.128;2023-07-30T06:30:45;3.90;;;2.27;;
2480;SDS011;57396;48.742;9.128;2023-07-30T06:33:10;3.50;;;2.17;;
2480;SDS011;57396;48.742;9.128;2023-07-30T06:35:36;4.90;;;2.03;;
2480;SDS011;57396;48.742;9.128;2023-07-30T06:38:01;2.80;;;1.90;;
2480;SDS011;57396;48.742;9.128;2023-07-30T06:40:27;2.20;;;1.73;;
2480;SDS011;57396;48.742;9.128;2023-07-30T06:42:52;5.07;;;1.80;;
2480;SDS011;57396;48.742;9.128;2023-07-30T06:45:17;2.47;;;1.90;;
2480;SDS011;57396;48.742;9.128;2023-07-30T06:47:43;6.40;;;1.70;;
2480;SDS011;57396;48.742;9.128;2023-07-30T06:50:09;1.70;;;1.60;;
2480;SDS011;57396;48.742;9.128;2023-07-30T06:52:34;2.93;;;1.90;;
2480;SDS011;57396;48.742;9.128;2023-07-30T06:55:01;1.50;;;1.40;;
2480;SDS011;57396;48.742;9.128;2023-07-30T06:57:28;1.60;;;1.50;;
2480;SDS011;57396;48.742;9.128;2023-07-30T06:59:54;1.50;;;1.30;;
2480;SDS011;57396;48.742;9.128;2023-07-30T07:02:19;1.37;;;1.27;;
2480;SDS011;57396;48.742;9.128;2023-07-30T07:04:45;2.43;;;1.37;;
2480;SDS011;57396;48.742;9.128;2023-07-30T07:07:10;1.77;;;1.67;;
2480;SDS011;57396;48.742;9.128;2023-07-30T07:09:35;1.33;;;1.23;;
2480;SDS011;57396;48.742;9.128;2023-07-30T07:12:01;2.20;;;1.60;;
2480;SDS011;57396;48.742;9.128;2023-07-30T07:14:26;2.80;;;1.70;;
2480;SDS011;57396;48.742;9.128;2023-07-30T07:16:53;1.87;;;1.43;;
2480;SDS011;57396;48.742;9.128;2023-07-30T07:19:21;1.50;;;1.40;;
2480;SDS011;57396;48.742;9.128;2023-07-30T07:21:46;3.10;;;1.30;;
2480;SDS011;57396;48.742;9.128;2023-07-30T07:24:12;1.47;;;1.33;;
2480;SDS011;57396;48.742;9.128;2023-07-30T07:26:37;2.60;;;1.43;;
2480;SDS011;57396;48.742;9.128;2023-07-30T07:29:04;1.57;;;1.47;;
2480;SDS011;57396;48.742;9.128;2023-07-30T07:31:29;1.77;;;1.40;;
2480;SDS011;57396;48.742;9.128;2023-07-30T07:33:54;2.23;;;1.40;;
2480;SDS011;57396;48.742;9.128;2023-07-30T07:36:20;2.50;;;1.57;;
2480;SDS011;57396;48.742;9.128;2023-07-30T07:38:46;1.80;;;1.50;;
2480;SDS011;57396;48.742;9.128;2023-07-30T07:41:17;2.63;;;1.40;;
2480;SDS011;57396;48.742;9.128;2023-07-30T07:43:46;2.50;;;1.30;;
2480;SDS011;57396;48.742;9.128;2023-07-30T07:46:12;1.40;;;1.27;;
2480;SDS011;57396;48.742;9.128;2023-07-30T07:48:40;1.10;;;1.00;;
2480;SDS011;57396;48.742;9.128;2023-07-30T07:51:07;1.50;;;1.40;;
2480;SDS011;57396;48.742;9.128;2023-07-30T07:53:37;1.50;;;1.40;;
2480;SDS011;57396;48.742;9.128;2023-07-30T07:56:02;1.57;;;1.33;;
2480;SDS011;57396;48.742;9.128;2023-07-30T07:58:28;2.43;;;1.10;;
2480;SDS011;57396;48.742;9.128;2023-07-30T08:00:57;1.43;;;1.33;;
2480;SDS011;57396;48.742;9.128;2023-07-30T08:03:23;1.53;;;1.43;;
2480;SDS011;57396;48.742;9.128;2023-07-30T08:05:48;1.60;;;1.20;;
2480;SDS011;57396;48.742;9.128;2023-07-30T08:08:15;1.77;;;1.10;;
2480;SDS011;57396;48.742;9.128;2023-07-30T08:10:40;2.50;;;1.10;;
2480;SDS011;57396;48.742;9.128;2023-07-30T08:13:09;1.20;;;1.00;;
2480;SDS011;57396;48.742;9.128;2023-07-30T08:15:35;2.70;;;1.50;;
2480;SDS011;57396;48.742;9.128;2023-07-30T08:18:00;1.53;;;1.43;;
2480;SDS011;57396;48.742;9.128;2023-07-30T08:20:26;2.13;;;1.40;;
2480;SDS011;57396;48.742;9.128;2023-07-30T08:22:51;1.67;;;1.17;;
2480;SDS011;57396;48.742;9.128;2023-07-30T08:25:16;1.40;;;1.20;;
2480;SDS011;57396;48.742;9.128;2023-07-30T08:27:42;2.30;;;1.37;;
2480;SDS011;57396;48.742;9.128;2023-07-30T08:30:07;1.40;;;1.30;;
2480;SDS011;57396;48.742;9.128;2023-07-30T08:32:33;2.23;;;1.27;;
2480;SDS011;57396;48.742;9.128;2023-07-30T08:34:59;2.63;;;1.10;;
2480;SDS011;57396;48.742;9.128;2023-07-30T08:37:24;2.20;;;1.63;;
2480;SDS011;57396;48.742;9.128;2023-07-30T08:39:50;1.30;;;1.20;;
2480;SDS011;57396;48.742;9.128;2023-07-30T08:42:17;1.60;;;1.50;;
2480;SDS011;57396;48.742;9.128;2023-07-30T08:44:42;1.40;;;1.30;;
2480;SDS011;57396;48.742;9.128;2023-07-30T08:47:08;1.63;;;1.20;;
2480;SDS011;57396;48.742;9.128;2023-07-30T08:49:33;2.50;;;1.50;;
2480;SDS011;57396;48.742;9.128;2023-07-30T08:51:59;1.73;;;1.33;;
2480;SDS011;57396;48.742;9.128;2023-07-30T08:54:25;1.50;;;1.30;;
2480;SDS011;57396;48.742;9.128;2023-07-30T08:56:51;2.00;;;1.80;;
2480;SDS011;57396;48.742;9.128;2023-07-30T08:59:18;4.53;;;1.63;;
2480;SDS011;57396;48.742;9.128;2023-07-30T09:01:45;1.33;;;1.23;;
2480;SDS011;57396;48.742;9.128;2023-07-30T09:04:13;1.70;;;1.40;;
2480;SDS011;57396;48.742;9.128;2023-07-30T09:06:41;2.07;;;1.60;;
2480;SDS011;57396;48.742;9.128;2023-07-30T09:09:06;1.50;;;1.40;;
2480;SDS011;57396;48.742;9.128;2023-07-30T09:11:32;2.50;;;1.40;;
2480;SDS011;57396;48.742;9.128;2023-07-30T09:14:01;2.07;;;1.37;;
2480;SDS011;57396;48.742;9.128;2023-07-30T09:16:27;1.70;;;1.60;;
2480;SDS011;57396;48.742;9.128;2023-07-30T09:18:53;2.53;;;1.40;;
2480;SDS011;57396;48.742;9.128;2023-07-30T09:21:19;1.93;;;1.80;;
2480;SDS011;57396;48.742;9.128;2023-07-30T09:23:46;3.40;;;1.70;;
2480;SDS011;57396;48.742;9.128;2023-07-30T09:26:12;1.70;;;1.50;;
2480;SDS011;57396;48.742;9.128;2023-07-30T09:28:38;1.50;;;1.40;;
2480;SDS011;57396;48.742;9.128;2023-07-30T09:31:04;1.67;;;1.40;;
2480;SDS011;57396;48.742;9.128;2023-07-30T09:33:33;2.93;;;1.60;;
2480;SDS011;57396;48.742;9.128;2023-07-30T09:36:02;2.47;;;1.50;;
2480;SDS011;57396;48.742;9.128;2023-07-30T09:38:28;2.03;;;1.83;;
2480;SDS011;57396;48.742;9.128;2023-07-30T09:41:00;2.13;;;1.47;;
2480;SDS011;57396;48.742;9.128;2023-07-30T09:43:33;3.50;;;1.90;;
2480;SDS011;57396;48.742;9.128;2023-07-30T09:46:02;2.83;;;1.90;;
2480;SDS011;57396;48.742;9.128;2023-07-30T09:48:31;1.80;;;1.70;;
2480;SDS011;57396;48.742;9.128;2023-07-30T09:50:59;1.90;;;1.80;;
2480;SDS011;57396;48.742;9.128;2023-07-30T09:53:24;2.30;;;2.10;;
2480;SDS011;57396;48.742;9.128;2023-07-30T09:55:50;2.40;;;1.30;;
2480;SDS011;57396;48.742;9.128;2023-07-30T09:58:16;1.67;;;1.40;;
2480;SDS011;57396;48.742;9.128;2023-07-30T10:00:41;1.70;;;1.60;;
2480;SDS011;57396;48.742;9.128;2023-07-30T10:03:08;4.30;;;1.33;;
2480;SDS011;57396;48.742;9.128;2023-07-30T10:05:35;1.60;;;1.50;;
2480;SDS011;57396;48.742;9.128;2023-07-30T10:08:05;2.90;;;1.60;;
2480;SDS011;57396;48.742;9.128;2023-07-30T10:10:32;3.27;;;1.60;;
2480;SDS011;57396;48.742;9.128;2023-07-30T10:13:00;2.20;;;1.80;;
2480;SDS011;57396;48.742;9.128;2023-07-30T10:15:29;1.50;;;1.40;;
2480;SDS011;57396;48.742;9.128;2023-07-30T10:17:55;1.60;;;1.50;;
2480;SDS011;57396;48.742;9.128;2023-07-30T10:20:28;2.17;;;1.40;;
2480;SDS011;57396;48.742;9.128;2023-07-30T10:22:55;2.00;;;1.80;;
2480;SDS011;57396;48.742;9.128;2023-07-30T10:25:22;2.47;;;2.20;;
2480;SDS011;57396;48.742;9.128;2023-07-30T10:27:52;2.43;;;2.23;;
2480;SDS011;57396;48.742;9.128;2023-07-30T10:30:18;2.07;;;1.87;;
2480;SDS011;57396;48.742;9.128;2023-07-30T10:35:34;2.80;;;1.80;;
2480;SDS011;57396;48.742;9.128;2023-07-30T10:38:11;2.43;;;1.70;;
2480;SDS011;57396;48.742;9.128;2023-07-30T10:43:35;5.10;;;1.80;;
2480;SDS011;57396;48.742;9.128;2023-07-30T10:46:02;3.93;;;1.47;;
2480;SDS011;57396;48.742;9.128;2023-07-30T10:48:35;2.97;;;1.80;;
2480;SDS011;57396;48.742;9.128;2023-07-30T10:51:02;2.23;;;2.03;;
2480;SDS011;57396;48.742;9.128;2023-07-30T10:53:29;1.80;;;1.70;;
2480;SDS011;57396;48.742;9.128;2023-07-30T10:55:57;2.10;;;1.90;;
2480;SDS011;57396;48.742;9.128;2023-07-30T10:58:25;2.10;;;1.70;;
2480;SDS011;57396;48.742;9.128;2023-07-30T11:00:51;12.73;;;2.37;;
2480;SDS011;57396;48.742;9.128;2023-07-30T11:03:16;5.20;;;1.90;;
2480;SDS011;57396;48.742;9.128;2023-07-30T11:05:41;2.00;;;1.90;;
2480;SDS011;57396;48.742;9.128;2023-07-30T11:08:07;2.17;;;1.70;;
2480;SDS011;57396;48.742;9.128;2023-07-30T11:10:40;4.67;;;1.90;;
2480;SDS011;57396;48.742;9.128;2023-07-30T11:13:07;5.00;;;2.13;;
2480;SDS011;57396;48.742;9.128;2023-07-30T11:15:32;3.20;;;1.80;;
2480;SDS011;57396;48.742;9.128;2023-07-30T11:17:58;2.50;;;2.30;;
2480;SDS011;57396;48.742;9.128;2023-07-30T11:20:25;2.90;;;1.90;;
2480;SDS011;57396;48.742;9.128;2023-07-30T11:22:54;2.37;;;1.87;;
2480;SDS011;57396;48.742;9.128;2023-07-30T11:25:20;4.90;;;2.10;;
2480;SDS011;57396;48.742;9.128;2023-07-30T11:27:49;4.37;;;1.90;;
2480;SDS011;57396;48.742;9.128;2023-07-30T11:30:15;2.23;;;2.03;;
2480;SDS011;57396;48.742;9.128;2023-07-30T11:32:41;8.10;;;2.20;;
2480;SDS011;57396;48.742;9.128;2023-07-30T11:35:07;2.03;;;1.83;;
2480;SDS011;57396;48.742;9.128;2023-07-30T11:37:34;2.70;;;1.93;;
2480;SDS011;57396;48.742;9.128;2023-07-30T11:40:00;6.27;;;1.83;;
2480;SDS011;57396;48.742;9.128;2023-07-30T11:42:25;2.63;;;2.00;;
2480;SDS011;57396;48.742;9.128;2023-07-30T11:44:54;2.80;;;2.43;;
2480;SDS011;57396;48.742;9.128;2023-07-30T11:47:20;2.30;;;1.83;;
2480;SDS011;57396;48.742;9.128;2023-07-30T11:49:59;3.70;;;1.97;;
2480;SDS011;57396;48.742;9.128;2023-07-30T11:52:24;2.63;;;1.93;;
2480;SDS011;57396;48.742;9.128;2023-07-30T11:55:00;1.80;;;1.70;;
2480;SDS011;57396;48.742;9.128;2023-07-30T11:57:33;1.70;;;1.60;;
2480;SDS011;57396;48.742;9.128;2023-07-30T11:59:59;4.27;;;2.00;;
2480;SDS011;57396;48.742;9.128;2023-07-30T12:02:25;3.33;;;1.90;;
2480;SDS011;57396;48.742;9.128;2023-07-30T12:04:50;2.63;;;2.10;;
2480;SDS011;57396;48.742;9.128;2023-07-30T12:07:22;2.60;;;2.13;;
2480;SDS011;57396;48.742;9.128;2023-07-30T12:09:48;2.10;;;1.90;;
2480;SDS011;57396;48.742;9.128;2023-07-30T12:12:14;2.57;;;2.20;;
2480;SDS011;57396;48.742;9.128;2023-07-30T12:14:44;4.90;;;2.00;;
2480;SDS011;57396;48.742;9.128;2023-07-30T12:17:15;4.83;;;2.20;;
2480;SDS011;57396;48.742;9.128;2023-07-30T12:19:40;2.47;;;1.60;;
2480;SDS011;57396;48.742;9.128;2023-07-30T12:22:06;1.70;;;1.60;;
2480;SDS011;57396;48.742;9.128;2023-07-30T12:24:31;3.50;;;2.10;;
2480;SDS011;57396;48.742;9.128;2023-07-30T12:26:57;4.03;;;2.83;;
2480;SDS011;57396;48.742;9.128;2023-07-30T12:29:22;5.17;;;2.60;;
2480;SDS011;57396;48.742;9.128;2023-07-30T12:31:49;2.90;;;2.30;;
2480;SDS011;57396;48.742;9.128;2023-07-30T12:34:16;2.63;;;1.87;;
2480;SDS011;57396;48.742;9.128;2023-07-30T12:36:42;3.17;;;2.50;;
2480;SDS011;57396;48.742;9.128;2023-07-30T12:39:07;7.67;;;2.40;;
2480;SDS011;57396;48.742;9.128;2023-07-30T12:41:33;2.23;;;1.80;;
2480;SDS011;57396;48.742;9.128;2023-07-30T12:43:58;2.43;;;2.00;;
2480;SDS011;57396;48.742;9.128;2023-07-30T12:46:24;5.43;;;2.03;;
2480;SDS011;57396;48.742;9.128;2023-07-30T12:48:52;2.03;;;1.80;;
2480;SDS011;57396;48.742;9.128;2023-07-30T12:51:17;4.90;;;2.00;;
2480;SDS011;57396;48.742;9.128;2023-07-30T12:53:43;2.90;;;1.93;;
2480;SDS011;57396;48.742;9.128;2023-07-30T12:56:08;1.83;;;1.60;;
2480;SDS011;57396;48.742;9.128;2023-07-30T12:58:34;2.80;;;2.00;;
2480;SDS011;57396;48.742;9.128;2023-07-30T13:01:00;3.20;;;2.13;;
2480;SDS011;57396;48.742;9.128;2023-07-30T13:03:25;3.50;;;1.90;;
2480;SDS011;57396;48.742;9.128;2023-07-30T13:05:50;1.70;;;1.60;;
2480;SDS011;57396;48.742;9.128;2023-07-30T13:08:16;2.43;;;1.80;;
2480;SDS011;57396;48.742;9.128;2023-07-30T13:10:41;2.30;;;1.60;;
2480;SDS011;57396;48.742;9.128;2023-07-30T13:13:07;5.80;;;1.90;;
2480;SDS011;57396;48.742;9.128;2023-07-30T13:15:32;2.53;;;1.83;;
2480;SDS011;57396;48.742;9.128;2023-07-30T13:17:58;2.50;;;1.73;;
2480;SDS011;57396;48.742;9.128;2023-07-30T13:20:23;2.47;;;1.70;;
2480;SDS011;57396;48.742;9.128;2023-07-30T13:22:49;1.90;;;1.70;;
2480;SDS011;57396;48.742;9.128;2023-07-30T13:25:15;2.23;;;1.63;;
2480;SDS011;57396;48.742;9.128;2023-07-30T13:27:40;4.33;;;1.60;;
2480;SDS011;57396;48.742;9.128;2023-07-30T13:30:06;3.07;;;1.90;;
2480;SDS011;57396;48.742;9.128;2023-07-30T13:32:32;2.10;;;1.70;;
2480;SDS011;57396;48.742;9.128;2023-07-30T13:34:57;2.83;;;1.80;;
2480;SDS011;57396;48.742;9.128;2023-07-30T13:37:23;2.37;;;1.53;;
2480;SDS011;57396;48.742;9.128;2023-07-30T13:39:48;4.73;;;1.63;;
2480;SDS011;57396;48.742;9.128;2023-07-30T13:42:13;2.03;;;1.83;;
2480;SDS011;57396;48.742;9.128;2023-07-30T13:44:39;5.83;;;1.93;;
2480;SDS011;57396;48.742;9.128;2023-07-30T13:47:05;3.43;;;1.80;;
2480;SDS011;57396;48.742;9.128;2023-07-30T13:49:30;2.60;;;1.80;;
2480;SDS011;57396;48.742;9.128;2023-07-30T13:51:56;2.17;;;1.97;;
2480;SDS011;57396;48.742;9.128;2023-07-30T13:54:21;2.30;;;1.40;;
2480;SDS011;57396;48.742;9.128;2023-07-30T13:56:46;4.10;;;1.73;;
2480;SDS011;57396;48.742;9.128;2023-07-30T13:59:12;3.10;;;1.67;;
2480;SDS011;57396;48.742;9.128;2023-07-30T14:01:37;4.10;;;1.93;;
2480;SDS011;57396;48.742;9.128;2023-07-30T14:04:03;1.77;;;1.40;;
2480;SDS011;57396;48.742;9.128;2023-07-30T14:06:28;4.50;;;1.80;;
2480;SDS011;57396;48.742;9.128;2023-07-30T14:08:54;5.30;;;1.80;;
2480;SDS011;57396;48.742;9.128;2023-07-30T14:11:19;3.83;;;1.40;;
2480;SDS011;57396;48.742;9.128;2023-07-30T14:13:45;3.23;;;1.60;;
2480;SDS011;57396;48.742;9.128;2023-07-30T14:16:11;2.77;;;1.60;;
2480;SDS011;57396;48.742;9.128;2023-07-30T14:18:36;2.63;;;2.00;;
2480;SDS011;57396;48.742;9.128;2023-07-30T14:21:04;6.10;;;1.57;;
2480;SDS011;57396;48.742;9.128;2023-07-30T14:23:29;1.97;;;1.70;;
2480;SDS011;57396;48.742;9.128;2023-07-30T14:25:54;2.30;;;1.70;;
2480;SDS011;57396;48.742;9.128;2023-07-30T14:28:20;7.90;;;1.70;;
2480;SDS011;57396;48.742;9.128;2023-07-30T14:30:45;1.67;;;1.33;;
2480;SDS011;57396;48.742;9.128;2023-07-30T14:33:11;2.70;;;1.57;;
2480;SDS011;57396;48.742;9.128;2023-07-30T14:35:36;8.30;;;1.73;;
2480;SDS011;57396;48.742;9.128;2023-07-30T14:38:03;2.73;;;1.47;;
2480;SDS011;57396;48.742;9.128;2023-07-30T14:40:30;3.40;;;1.87;;
2480;SDS011;57396;48.742;9.128;2023-07-30T14:42:55;3.10;;;1.60;;
2480;SDS011;57396;48.742;9.128;2023-07-30T14:45:21;3.73;;;1.60;;
2480;SDS011;57396;48.742;9.128;2023-07-30T14:47:46;5.77;;;1.70;;
2480;SDS011;57396;48.742;9.128;2023-07-30T14:50:12;2.87;;;1.50;;
2480;SDS011;57396;48.742;9.128;2023-07-30T14:52:37;3.77;;;1.40;;
2480;SDS011;57396;48.742;9.128;2023-07-30T14:55:03;9.73;;;1.70;;
2480;SDS011;57396;48.742;9.128;2023-07-30T14:57:29;3.60;;;1.13;;
2480;SDS011;57396;48.742;9.128;2023-07-30T14:59:55;3.43;;;1.30;;